sensor_id;sensor_type;location;lat;lon;timestamp;P1;durP1;ratioP1;P2;durP2;ratioP2
35552;SDS011;21656;46.054;13.614;2022-09-29T00:00:31;6.55;;;2.50;;
35552;SDS011;21656;46.054;13.614;2022-09-29T00:02:57;8.13;;;2.30;;
35552;SDS011;21656;46.054;13.614;2022-09-29T00:05:22;11.57;;;3.00;;
35552;SDS011;21656;46.054;13.614;2022-09-29T00:07:48;5.35;;;2.85;;
35552;SDS011;21656;46.054;13.614;2022-09-29T00:10:13;6.57;;;2.80;;
35552;SDS011;21656;46.054;13.614;2022-09-29T00:12:39;7.15;;;2.80;;
35552;SDS011;21656;46.054;13.614;2022-09-29T00:15:04;3.83;;;2.53;;
35552;SDS011;21656;46.054;13.614;2022-09-29T00:17:30;4.75;;;2.60;;
35552;SDS011;21656;46.054;13.614;2022-09-29T00:19:56;7.38;;;2.90;;
35552;SDS011;21656;46.054;13.614;2022-09-29T00:22:21;6.40;;;2.22;;
35552;SDS011;21656;46.054;13.614;2022-09-29T00:24:47;3.67;;;2.10;;
35552;SDS011;21656;46.054;13.614;2022-09-29T00:27:13;7.50;;;2.50;;
35552;SDS011;21656;46.054;13.614;2022-09-29T00:29:39;6.07;;;2.30;;
35552;SDS011;21656;46.054;13.614;2022-09-29T00:32:05;5.75;;;2.17;;
35552;SDS011;21656;46.054;13.614;2022-09-29T00:34:30;3.88;;;1.98;;
35552;SDS011;21656;46.054;13.614;2022-09-29T00:36:56;5.70;;;2.50;;
35552;SDS011;21656;46.054;13.614;2022-09-29T00:39:21;4.05;;;2.22;;
35552;SDS011;21656;46.054;13.614;2022-09-29T00:41:46;6.82;;;3.38;;
35552;SDS011;21656;46.054;13.614;2022-09-29T00:54:25;5.30;;;1.92;;
35552;SDS011;21656;46.054;13.614;2022-09-29T00:56:54;3.17;;;1.80;;
35552;SDS011;21656;46.054;13.614;2022-09-29T00:59:25;6.32;;;2.55;;
35552;SDS011;21656;46.054;13.614;2022-09-29T01:01:56;7.13;;;2.00;;
35552;SDS011;21656;46.054;13.614;2022-09-29T01:04:23;6.00;;;3.10;;
35552;SDS011;21656;46.054;13.614;2022-09-29T01:06:54;4.47;;;1.92;;
35552;SDS011;21656;46.054;13.614;2022-09-29T01:09:26;7.65;;;2.05;;
35552;SDS011;21656;46.054;13.614;2022-09-29T01:11:55;2.97;;;1.83;;
35552;SDS011;21656;46.054;13.614;2022-09-29T01:14:26;6.18;;;2.25;;
35552;SDS011;21656;46.054;13.614;2022-09-29T01:16:53;2.20;;;1.70;;
35552;SDS011;21656;46.054;13.614;2022-09-29T01:35:57;6.53;;;2.22;;
35552;SDS011;21656;46.054;13.614;2022-09-29T01:38:39;4.80;;;2.00;;
35552;SDS011;21656;46.054;13.614;2022-09-29T06:52:09;8.15;;;3.45;;
35552;SDS011;21656;46.054;13.614;2022-09-29T06:54:35;6.72;;;5.13;;
35552;SDS011;21656;46.054;13.614;2022-09-29T06:57:00;8.90;;;4.40;;
35552;SDS011;21656;46.054;13.614;2022-09-29T06:59:25;14.77;;;7.13;;
35552;SDS011;21656;46.054;13.614;2022-09-29T07:01:51;11.45;;;5.28;;
35552;SDS011;21656;46.054;13.614;2022-09-29T07:04:16;22.95;;;6.10;;
35552;SDS011;21656;46.054;13.614;2022-09-29T07:06:43;16.92;;;10.25;;
35552;SDS011;21656;46.054;13.614;2022-09-29T07:09:09;16.15;;;9.52;;
35552;SDS011;21656;46.054;13.614;2022-09-29T07:11:39;12.45;;;7.13;;
35552;SDS011;21656;46.054;13.614;2022-09-29T07:14:10;5.43;;;4.07;;
35552;SDS011;21656;46.054;13.614;2022-09-29T07:16:37;6.13;;;4.28;;
35552;SDS011;21656;46.054;13.614;2022-09-29T07:19:02;4.43;;;3.22;;
35552;SDS011;21656;46.054;13.614;2022-09-29T07:21:27;6.97;;;3.75;;
35552;SDS011;21656;46.054;13.614;2022-09-29T07:23:53;5.20;;;2.92;;
35552;SDS011;21656;46.054;13.614;2022-09-29T07:26:18;6.05;;;2.67;;
35552;SDS011;21656;46.054;13.614;2022-09-29T07:28:44;7.63;;;2.65;;
35552;SDS011;21656;46.054;13.614;2022-09-29T07:31:12;6.47;;;2.80;;
35552;SDS011;21656;46.054;13.614;2022-09-29T07:33:42;7.00;;;3.03;;
35552;SDS011;21656;46.054;13.614;2022-09-29T07:36:08;7.10;;;2.92;;
35552;SDS011;21656;46.054;13.614;2022-09-29T07:38:33;34.00;;;17.90;;
35552;SDS011;21656;46.054;13.614;2022-09-29T07:41:03;37.75;;;24.40;;
35552;SDS011;21656;46.054;13.614;2022-09-29T07:43:34;16.73;;;7.20;;
35552;SDS011;21656;46.054;13.614;2022-09-29T07:45:59;15.18;;;9.20;;
35552;SDS011;21656;46.054;13.614;2022-09-29T07:48:25;7.82;;;3.85;;
35552;SDS011;21656;46.054;13.614;2022-09-29T07:50:51;6.82;;;3.78;;
35552;SDS011;21656;46.054;13.614;2022-09-29T07:53:24;7.10;;;3.63;;
35552;SDS011;21656;46.054;13.614;2022-09-29T07:55:50;4.30;;;2.25;;
35552;SDS011;21656;46.054;13.614;2022-09-29T07:58:16;5.03;;;3.00;;
35552;SDS011;21656;46.054;13.614;2022-09-29T08:00:41;9.63;;;3.08;;
35552;SDS011;21656;46.054;13.614;2022-09-29T08:03:07;6.57;;;3.15;;
35552;SDS011;21656;46.054;13.614;2022-09-29T08:05:32;4.30;;;2.72;;
35552;SDS011;21656;46.054;13.614;2022-09-29T08:07:59;4.90;;;2.92;;
35552;SDS011;21656;46.054;13.614;2022-09-29T08:10:25;4.75;;;2.40;;
35552;SDS011;21656;46.054;13.614;2022-09-29T08:12:52;4.65;;;2.42;;
35552;SDS011;21656;46.054;13.614;2022-09-29T08:15:18;3.85;;;2.45;;
35552;SDS011;21656;46.054;13.614;2022-09-29T08:17:44;6.05;;;2.42;;
35552;SDS011;21656;46.054;13.614;2022-09-29T08:20:09;5.03;;;1.95;;
35552;SDS011;21656;46.054;13.614;2022-09-29T08:22:35;2.33;;;1.45;;
35552;SDS011;21656;46.054;13.614;2022-09-29T08:25:00;3.97;;;1.90;;
35552;SDS011;21656;46.054;13.614;2022-09-29T08:27:26;1.48;;;1.25;;
35552;SDS011;21656;46.054;13.614;2022-09-29T08:29:53;4.28;;;1.63;;
35552;SDS011;21656;46.054;13.614;2022-09-29T08:32:18;3.67;;;1.52;;
35552;SDS011;21656;46.054;13.614;2022-09-29T08:34:44;1.98;;;1.30;;
35552;SDS011;21656;46.054;13.614;2022-09-29T08:37:09;2.67;;;1.15;;
35552;SDS011;21656;46.054;13.614;2022-09-29T08:39:35;4.45;;;1.42;;
35552;SDS011;21656;46.054;13.614;2022-09-29T08:42:05;3.67;;;1.63;;
35552;SDS011;21656;46.054;13.614;2022-09-29T08:44:48;2.10;;;1.20;;
35552;SDS011;21656;46.054;13.614;2022-09-29T08:57:40;1.83;;;1.08;;
35552;SDS011;21656;46.054;13.614;2022-09-29T09:00:06;4.20;;;1.67;;
35552;SDS011;21656;46.054;13.614;2022-09-29T09:05:20;2.20;;;1.20;;
35552;SDS011;21656;46.054;13.614;2022-09-29T09:16:53;2.92;;;1.30;;
35552;SDS011;21656;46.054;13.614;2022-09-29T09:21:58;6.60;;;1.50;;
35552;SDS011;21656;46.054;13.614;2022-09-29T09:25:06;3.17;;;1.02;;
35552;SDS011;21656;46.054;13.614;2022-09-29T09:27:36;2.35;;;1.98;;
35552;SDS011;21656;46.054;13.614;2022-09-29T09:30:16;1.77;;;0.90;;
35552;SDS011;21656;46.054;13.614;2022-09-29T09:32:48;1.70;;;1.20;;
35552;SDS011;21656;46.054;13.614;2022-09-29T09:35:29;1.58;;;1.00;;
35552;SDS011;21656;46.054;13.614;2022-09-29T09:38:03;1.08;;;0.80;;
35552;SDS011;21656;46.054;13.614;2022-09-29T09:40:42;4.53;;;1.20;;
35552;SDS011;21656;46.054;13.614;2022-09-29T09:45:40;2.15;;;1.00;;
35552;SDS011;21656;46.054;13.614;2022-09-29T09:48:18;3.63;;;1.13;;
35552;SDS011;21656;46.054;13.614;2022-09-29T09:54:37;2.72;;;1.33;;
35552;SDS011;21656;46.054;13.614;2022-09-29T09:59:46;1.50;;;0.90;;
35552;SDS011;21656;46.054;13.614;2022-09-29T10:02:24;1.50;;;1.05;;
35552;SDS011;21656;46.054;13.614;2022-09-29T10:04:51;2.67;;;1.00;;
35552;SDS011;21656;46.054;13.614;2022-09-29T10:07:21;5.00;;;1.10;;
35552;SDS011;21656;46.054;13.614;2022-09-29T10:09:48;5.53;;;1.27;;
35552;SDS011;21656;46.054;13.614;2022-09-29T10:12:15;3.63;;;1.30;;
35552;SDS011;21656;46.054;13.614;2022-09-29T10:14:52;6.00;;;1.40;;
35552;SDS011;21656;46.054;13.614;2022-09-29T10:17:24;3.10;;;1.33;;
35552;SDS011;21656;46.054;13.614;2022-09-29T10:22:23;2.85;;;1.30;;
35552;SDS011;21656;46.054;13.614;2022-09-29T10:24:51;3.58;;;1.27;;
35552;SDS011;21656;46.054;13.614;2022-09-29T10:27:21;2.40;;;1.30;;
35552;SDS011;21656;46.054;13.614;2022-09-29T10:29:52;6.22;;;1.25;;
35552;SDS011;21656;46.054;13.614;2022-09-29T10:34:51;3.92;;;1.23;;
35552;SDS011;21656;46.054;13.614;2022-09-29T10:39:49;2.67;;;1.38;;
35552;SDS011;21656;46.054;13.614;2022-09-29T10:42:30;2.88;;;1.42;;
35552;SDS011;21656;46.054;13.614;2022-09-29T10:52:54;4.25;;;1.77;;
35552;SDS011;21656;46.054;13.614;2022-09-29T10:55:21;4.95;;;1.90;;
35552;SDS011;21656;46.054;13.614;2022-09-29T10:57:48;4.25;;;1.88;;
35552;SDS011;21656;46.054;13.614;2022-09-29T11:00:28;3.65;;;1.85;;
35552;SDS011;21656;46.054;13.614;2022-09-29T11:03:18;5.47;;;1.70;;
35552;SDS011;21656;46.054;13.614;2022-09-29T11:06:07;5.60;;;3.78;;
35552;SDS011;21656;46.054;13.614;2022-09-29T11:11:31;4.70;;;2.25;;
35552;SDS011;21656;46.054;13.614;2022-09-29T11:14:22;5.57;;;2.00;;
35552;SDS011;21656;46.054;13.614;2022-09-29T11:16:54;6.88;;;3.17;;
35552;SDS011;21656;46.054;13.614;2022-09-29T11:19:21;15.25;;;4.05;;
35552;SDS011;21656;46.054;13.614;2022-09-29T11:29:27;7.32;;;1.95;;
35552;SDS011;21656;46.054;13.614;2022-09-29T11:45:03;4.40;;;2.15;;
35552;SDS011;21656;46.054;13.614;2022-09-29T11:55:18;7.70;;;2.70;;
35552;SDS011;21656;46.054;13.614;2022-09-29T12:00:58;4.47;;;2.45;;
35552;SDS011;21656;46.054;13.614;2022-09-29T12:09:18;9.98;;;2.20;;
35552;SDS011;21656;46.054;13.614;2022-09-29T12:17:26;13.68;;;2.10;;
35552;SDS011;21656;46.054;13.614;2022-09-29T12:20:03;6.82;;;2.42;;
35552;SDS011;21656;46.054;13.614;2022-09-29T12:22:43;8.43;;;3.70;;
35552;SDS011;21656;46.054;13.614;2022-09-29T12:25:15;6.53;;;2.90;;
35552;SDS011;21656;46.054;13.614;2022-09-29T12:27:43;5.88;;;2.88;;
35552;SDS011;21656;46.054;13.614;2022-09-29T12:32:51;5.80;;;2.72;;
35552;SDS011;21656;46.054;13.614;2022-09-29T12:35:36;6.43;;;1.83;;
35552;SDS011;21656;46.054;13.614;2022-09-29T12:46:35;6.68;;;1.42;;
35552;SDS011;21656;46.054;13.614;2022-09-29T12:52:19;3.85;;;1.13;;
35552;SDS011;21656;46.054;13.614;2022-09-29T12:54:54;4.13;;;1.48;;
35552;SDS011;21656;46.054;13.614;2022-09-29T12:57:25;4.05;;;1.50;;
35552;SDS011;21656;46.054;13.614;2022-09-29T12:59:57;4.43;;;1.38;;
35552;SDS011;21656;46.054;13.614;2022-09-29T13:13:57;3.60;;;1.67;;
35552;SDS011;21656;46.054;13.614;2022-09-29T13:28:21;8.88;;;3.00;;
35552;SDS011;21656;46.054;13.614;2022-09-29T13:30:50;3.67;;;1.48;;
35552;SDS011;21656;46.054;13.614;2022-09-29T13:33:23;4.80;;;1.10;;
35552;SDS011;21656;46.054;13.614;2022-09-29T13:35:59;5.50;;;2.10;;
35552;SDS011;21656;46.054;13.614;2022-09-29T13:38:26;4.53;;;1.90;;
35552;SDS011;21656;46.054;13.614;2022-09-29T13:41:31;4.03;;;1.55;;
35552;SDS011;21656;46.054;13.614;2022-09-29T13:44:25;4.60;;;1.20;;
35552;SDS011;21656;46.054;13.614;2022-09-29T13:46:51;3.25;;;0.85;;
35552;SDS011;21656;46.054;13.614;2022-09-29T13:49:29;2.92;;;1.10;;
35552;SDS011;21656;46.054;13.614;2022-09-29T13:59:36;3.92;;;1.00;;
35552;SDS011;21656;46.054;13.614;2022-09-29T14:07:49;1.67;;;0.73;;
35552;SDS011;21656;46.054;13.614;2022-09-29T14:10:47;2.53;;;0.88;;
35552;SDS011;21656;46.054;13.614;2022-09-29T14:13:23;2.33;;;1.00;;
35552;SDS011;21656;46.054;13.614;2022-09-29T14:18:52;2.70;;;0.93;;
35552;SDS011;21656;46.054;13.614;2022-09-29T14:21:46;4.38;;;0.90;;
35552;SDS011;21656;46.054;13.614;2022-09-29T14:38:11;2.35;;;0.70;;
35552;SDS011;21656;46.054;13.614;2022-09-29T14:40:57;2.33;;;1.02;;
35552;SDS011;21656;46.054;13.614;2022-09-29T15:01:29;3.60;;;0.75;;
35552;SDS011;21656;46.054;13.614;2022-09-29T15:04:06;0.70;;;0.70;;
35552;SDS011;21656;46.054;13.614;2022-09-29T15:06:46;3.83;;;1.42;;
35552;SDS011;21656;46.054;13.614;2022-09-29T15:09:18;2.30;;;1.20;;
35552;SDS011;21656;46.054;13.614;2022-09-29T15:19:31;1.55;;;0.80;;
35552;SDS011;21656;46.054;13.614;2022-09-29T15:27:26;3.15;;;0.95;;
35552;SDS011;21656;46.054;13.614;2022-09-29T15:29:55;3.30;;;1.20;;
35552;SDS011;21656;46.054;13.614;2022-09-29T15:32:23;4.13;;;1.00;;
35552;SDS011;21656;46.054;13.614;2022-09-29T15:34:50;3.05;;;1.30;;
35552;SDS011;21656;46.054;13.614;2022-09-29T15:37:17;3.15;;;0.80;;
35552;SDS011;21656;46.054;13.614;2022-09-29T15:39:44;2.90;;;1.10;;
35552;SDS011;21656;46.054;13.614;2022-09-29T15:42:16;3.67;;;1.50;;
35552;SDS011;21656;46.054;13.614;2022-09-29T15:45:01;3.03;;;1.30;;
35552;SDS011;21656;46.054;13.614;2022-09-29T15:50:02;9.10;;;1.95;;
35552;SDS011;21656;46.054;13.614;2022-09-29T15:52:29;5.18;;;1.27;;
35552;SDS011;21656;46.054;13.614;2022-09-29T15:54:56;3.97;;;1.10;;
35552;SDS011;21656;46.054;13.614;2022-09-29T16:03:09;6.57;;;2.33;;
35552;SDS011;21656;46.054;13.614;2022-09-29T16:08:52;4.40;;;1.35;;
35552;SDS011;21656;46.054;13.614;2022-09-29T16:11:26;5.47;;;1.90;;
35552;SDS011;21656;46.054;13.614;2022-09-29T16:13:59;8.88;;;2.60;;
35552;SDS011;21656;46.054;13.614;2022-09-29T16:16:39;10.02;;;2.38;;
35552;SDS011;21656;46.054;13.614;2022-09-29T16:19:29;4.65;;;1.98;;
35552;SDS011;21656;46.054;13.614;2022-09-29T16:21:59;4.95;;;1.60;;
35552;SDS011;21656;46.054;13.614;2022-09-29T16:24:31;3.05;;;1.20;;
35552;SDS011;21656;46.054;13.614;2022-09-29T16:26:59;4.22;;;1.55;;
35552;SDS011;21656;46.054;13.614;2022-09-29T16:38:07;10.00;;;2.28;;
35552;SDS011;21656;46.054;13.614;2022-09-29T16:40:58;6.00;;;1.88;;
35552;SDS011;21656;46.054;13.614;2022-09-29T16:43:28;4.05;;;2.08;;
35552;SDS011;21656;46.054;13.614;2022-09-29T16:45:55;6.88;;;3.53;;
35552;SDS011;21656;46.054;13.614;2022-09-29T16:48:23;9.80;;;3.95;;
35552;SDS011;21656;46.054;13.614;2022-09-29T16:50:54;7.03;;;2.80;;
35552;SDS011;21656;46.054;13.614;2022-09-29T16:53:28;6.22;;;2.63;;
35552;SDS011;21656;46.054;13.614;2022-09-29T16:56:08;6.63;;;2.45;;
35552;SDS011;21656;46.054;13.614;2022-09-29T16:58:43;7.50;;;2.15;;
35552;SDS011;21656;46.054;13.614;2022-09-29T17:01:10;3.78;;;1.67;;
35552;SDS011;21656;46.054;13.614;2022-09-29T17:03:41;4.30;;;1.80;;
35552;SDS011;21656;46.054;13.614;2022-09-29T17:06:08;3.50;;;2.00;;
35552;SDS011;21656;46.054;13.614;2022-09-29T17:08:34;3.85;;;2.35;;
35552;SDS011;21656;46.054;13.614;2022-09-29T17:11:00;8.75;;;2.42;;
35552;SDS011;21656;46.054;13.614;2022-09-29T17:13:29;5.32;;;2.05;;
35552;SDS011;21656;46.054;13.614;2022-09-29T17:15:59;4.60;;;2.13;;
35552;SDS011;21656;46.054;13.614;2022-09-29T17:18:24;6.07;;;2.08;;
35552;SDS011;21656;46.054;13.614;2022-09-29T17:20:52;5.75;;;2.30;;
35552;SDS011;21656;46.054;13.614;2022-09-29T17:23:18;3.70;;;1.52;;
35552;SDS011;21656;46.054;13.614;2022-09-29T17:25:44;3.72;;;1.75;;
35552;SDS011;21656;46.054;13.614;2022-09-29T17:28:16;3.85;;;2.30;;
35552;SDS011;21656;46.054;13.614;2022-09-29T17:30:44;5.15;;;1.85;;
35552;SDS011;21656;46.054;13.614;2022-09-29T17:33:11;2.28;;;1.27;;
35552;SDS011;21656;46.054;13.614;2022-09-29T17:35:44;2.22;;;1.13;;
35552;SDS011;21656;46.054;13.614;2022-09-29T17:38:15;3.58;;;1.48;;
35552;SDS011;21656;46.054;13.614;2022-09-29T17:43:12;4.18;;;1.83;;
35552;SDS011;21656;46.054;13.614;2022-09-29T17:45:37;3.90;;;1.70;;
35552;SDS011;21656;46.054;13.614;2022-09-29T17:48:06;4.57;;;1.83;;
35552;SDS011;21656;46.054;13.614;2022-09-29T17:50:35;3.20;;;1.27;;
35552;SDS011;21656;46.054;13.614;2022-09-29T17:53:05;5.15;;;1.80;;
35552;SDS011;21656;46.054;13.614;2022-09-29T17:55:31;4.40;;;2.00;;
35552;SDS011;21656;46.054;13.614;2022-09-29T17:57:56;6.40;;;1.65;;
35552;SDS011;21656;46.054;13.614;2022-09-29T18:00:26;3.13;;;1.70;;
35552;SDS011;21656;46.054;13.614;2022-09-29T18:03:04;4.10;;;1.60;;
35552;SDS011;21656;46.054;13.614;2022-09-29T18:05:33;2.92;;;1.60;;
35552;SDS011;21656;46.054;13.614;2022-09-29T18:07:59;3.90;;;1.95;;
35552;SDS011;21656;46.054;13.614;2022-09-29T18:13:10;4.05;;;2.17;;
35552;SDS011;21656;46.054;13.614;2022-09-29T18:15:36;2.90;;;1.98;;
35552;SDS011;21656;46.054;13.614;2022-09-29T18:18:03;3.25;;;1.23;;
35552;SDS011;21656;46.054;13.614;2022-09-29T18:20:30;4.53;;;1.58;;
35552;SDS011;21656;46.054;13.614;2022-09-29T18:22:57;5.45;;;1.42;;
35552;SDS011;21656;46.054;13.614;2022-09-29T18:25:25;4.53;;;1.33;;
35552;SDS011;21656;46.054;13.614;2022-09-29T18:27:52;6.32;;;1.80;;
35552;SDS011;21656;46.054;13.614;2022-09-29T18:30:28;4.53;;;1.40;;
35552;SDS011;21656;46.054;13.614;2022-09-29T18:32:57;3.75;;;1.20;;
35552;SDS011;21656;46.054;13.614;2022-09-29T18:35:24;4.85;;;1.60;;
35552;SDS011;21656;46.054;13.614;2022-09-29T18:37:52;3.65;;;1.92;;
35552;SDS011;21656;46.054;13.614;2022-09-29T18:40:18;3.25;;;1.60;;
35552;SDS011;21656;46.054;13.614;2022-09-29T18:42:45;3.92;;;1.40;;
35552;SDS011;21656;46.054;13.614;2022-09-29T18:45:14;8.57;;;1.67;;
35552;SDS011;21656;46.054;13.614;2022-09-29T18:47:46;7.18;;;1.70;;
35552;SDS011;21656;46.054;13.614;2022-09-29T18:50:22;2.15;;;1.30;;
35552;SDS011;21656;46.054;13.614;2022-09-29T18:52:50;1.75;;;1.00;;
35552;SDS011;21656;46.054;13.614;2022-09-29T18:55:17;2.50;;;1.13;;
35552;SDS011;21656;46.054;13.614;2022-09-29T18:57:44;3.90;;;1.60;;
35552;SDS011;21656;46.054;13.614;2022-09-29T19:00:11;2.40;;;1.40;;
35552;SDS011;21656;46.054;13.614;2022-09-29T19:02:42;2.33;;;1.60;;
35552;SDS011;21656;46.054;13.614;2022-09-29T19:05:13;1.90;;;1.23;;
35552;SDS011;21656;46.054;13.614;2022-09-29T19:07:43;1.40;;;0.98;;
35552;SDS011;21656;46.054;13.614;2022-09-29T19:10:10;4.15;;;1.05;;
35552;SDS011;21656;46.054;13.614;2022-09-29T19:12:36;3.10;;;1.00;;
35552;SDS011;21656;46.054;13.614;2022-09-29T19:15:02;1.60;;;1.00;;
35552;SDS011;21656;46.054;13.614;2022-09-29T19:17:29;2.88;;;0.93;;
35552;SDS011;21656;46.054;13.614;2022-09-29T19:19:56;2.63;;;0.70;;
35552;SDS011;21656;46.054;13.614;2022-09-29T19:22:22;1.08;;;0.75;;
35552;SDS011;21656;46.054;13.614;2022-09-29T19:24:50;1.77;;;0.85;;
35552;SDS011;21656;46.054;13.614;2022-09-29T19:27:17;1.20;;;0.80;;
35552;SDS011;21656;46.054;13.614;2022-09-29T19:29:44;2.05;;;0.75;;
35552;SDS011;21656;46.054;13.614;2022-09-29T19:32:11;2.55;;;1.10;;
35552;SDS011;21656;46.054;13.614;2022-09-29T19:34:37;2.60;;;1.10;;
35552;SDS011;21656;46.054;13.614;2022-09-29T19:37:03;1.75;;;0.80;;
35552;SDS011;21656;46.054;13.614;2022-09-29T19:39:30;1.38;;;1.00;;
35552;SDS011;21656;46.054;13.614;2022-09-29T19:41:56;1.50;;;0.98;;
35552;SDS011;21656;46.054;13.614;2022-09-29T19:44:22;4.05;;;1.52;;
35552;SDS011;21656;46.054;13.614;2022-09-29T19:46:48;2.20;;;1.15;;
35552;SDS011;21656;46.054;13.614;2022-09-29T19:49:14;3.08;;;1.08;;
35552;SDS011;21656;46.054;13.614;2022-09-29T19:51:40;1.02;;;0.80;;
35552;SDS011;21656;46.054;13.614;2022-09-29T19:54:19;4.50;;;0.82;;
35552;SDS011;21656;46.054;13.614;2022-09-29T19:56:47;2.15;;;0.70;;
35552;SDS011;21656;46.054;13.614;2022-09-29T19:59:14;1.98;;;1.08;;
35552;SDS011;21656;46.054;13.614;2022-09-29T20:01:44;4.68;;;1.30;;
35552;SDS011;21656;46.054;13.614;2022-09-29T20:04:13;3.10;;;1.50;;
35552;SDS011;21656;46.054;13.614;2022-09-29T20:06:39;2.58;;;1.30;;
35552;SDS011;21656;46.054;13.614;2022-09-29T20:09:08;3.05;;;1.50;;
35552;SDS011;21656;46.054;13.614;2022-09-29T20:11:35;2.95;;;1.90;;
35552;SDS011;21656;46.054;13.614;2022-09-29T20:14:07;7.95;;;3.30;;
35552;SDS011;21656;46.054;13.614;2022-09-29T20:16:39;5.28;;;2.88;;
35552;SDS011;21656;46.054;13.614;2022-09-29T20:19:06;4.03;;;1.30;;
35552;SDS011;21656;46.054;13.614;2022-09-29T20:21:35;3.38;;;1.42;;
35552;SDS011;21656;46.054;13.614;2022-09-29T20:24:05;2.08;;;0.90;;
35552;SDS011;21656;46.054;13.614;2022-09-29T20:26:33;1.35;;;1.00;;
35552;SDS011;21656;46.054;13.614;2022-09-29T20:29:02;2.05;;;0.70;;
35552;SDS011;21656;46.054;13.614;2022-09-29T20:31:30;2.47;;;1.00;;
35552;SDS011;21656;46.054;13.614;2022-09-29T20:33:57;3.17;;;1.00;;
35552;SDS011;21656;46.054;13.614;2022-09-29T20:36:24;29.52;;;8.35;;
35552;SDS011;21656;46.054;13.614;2022-09-29T20:38:50;6.88;;;2.67;;
35552;SDS011;21656;46.054;13.614;2022-09-29T20:41:16;3.85;;;1.30;;
35552;SDS011;21656;46.054;13.614;2022-09-29T20:43:45;2.92;;;0.85;;
35552;SDS011;21656;46.054;13.614;2022-09-29T20:46:11;1.45;;;1.00;;
35552;SDS011;21656;46.054;13.614;2022-09-29T20:48:38;1.08;;;0.60;;
35552;SDS011;21656;46.054;13.614;2022-09-29T20:51:06;2.15;;;0.60;;
35552;SDS011;21656;46.054;13.614;2022-09-29T20:53:39;3.00;;;0.70;;
35552;SDS011;21656;46.054;13.614;2022-09-29T20:56:08;7.63;;;0.70;;
